BCY6P EGSH-EIDW
Flight info
| Callsign | BCY6P |
|---|---|
| Flight time | 1h 0m |
| Altitude | 28000 |
| Route | OTBED Y70 GOLES UL975 DESIG UL70 GUNTU Z196 LELDO M145 BAGSO BAGSO4L |
| Aircraft | RJ85/M-SDFGIRWY/LB1 |
Departure
| Time | 2026-05-04 17:49 |
|---|---|
| Airport | Norwich Airport (EGSH) |
Arrival
| Time | 2026-05-04 18:50 |
|---|---|
| Airport | Dublin Airport (EIDW) |
| Time | Latitude | Longitude | Altitude | Speed | Heading |
|---|---|---|---|---|---|
| 2026-05-04 17:31 | 52.66970 | 1.27900 | 120 ft | 0 kts | 189° |
| 2026-05-04 17:41 | 52.66977 | 1.27901 | 121 ft | 4 kts | 189° |
| 2026-05-04 17:41 | 52.66999 | 1.27908 | 119 ft | 3 kts | 190° |
| 2026-05-04 17:42 | 52.67021 | 1.27927 | 118 ft | 4 kts | 237° |
| 2026-05-04 17:42 | 52.67027 | 1.27968 | 121 ft | 4 kts | 271° |
| 2026-05-04 17:42 | 52.67027 | 1.28000 | 120 ft | 2 kts | 268° |
| 2026-05-04 17:42 | 52.67028 | 1.28017 | 121 ft | 0 kts | 263° |
| 2026-05-04 17:44 | 52.67027 | 1.28010 | 121 ft | 3 kts | 261° |
| 2026-05-04 17:44 | 52.67033 | 1.27908 | 119 ft | 16 kts | 283° |
| 2026-05-04 17:45 | 52.67083 | 1.27784 | 120 ft | 5 kts | 20° |
| 2026-05-04 17:45 | 52.67161 | 1.27875 | 121 ft | 27 kts | 39° |
| 2026-05-04 17:45 | 52.67303 | 1.28055 | 117 ft | 24 kts | 37° |
| 2026-05-04 17:45 | 52.67429 | 1.28208 | 119 ft | 22 kts | 33° |
| 2026-05-04 17:46 | 52.67562 | 1.28371 | 118 ft | 18 kts | 36° |
| 2026-05-04 17:46 | 52.67597 | 1.28253 | 118 ft | 21 kts | 268° |
| 2026-05-04 17:46 | 52.67592 | 1.28024 | 122 ft | 20 kts | 269° |
| 2026-05-04 17:46 | 52.67590 | 1.27645 | 122 ft | 44 kts | 269° |
| 2026-05-04 17:47 | 52.67564 | 1.27234 | 118 ft | 23 kts | 222° |
| 2026-05-04 17:47 | 52.67531 | 1.27038 | 121 ft | 18 kts | 269° |
| 2026-05-04 17:47 | 52.67568 | 1.26938 | 123 ft | 6 kts | 351° |
| 2026-05-04 17:47 | 52.67585 | 1.26968 | 122 ft | 0 kts | 89° |
| 2026-05-04 17:49 | 52.67587 | 1.27029 | 124 ft | 33 kts | 87° |
| 2026-05-04 17:49 | 52.67594 | 1.27933 | 121 ft | 118 kts | 89° |
| 2026-05-04 17:49 | 52.67617 | 1.29418 | 590 ft | 133 kts | 85° |
| 2026-05-04 17:49 | 52.67649 | 1.30919 | 1426 ft | 132 kts | 82° |
| 2026-05-04 17:50 | 52.67836 | 1.32387 | 2086 ft | 142 kts | 49° |
| 2026-05-04 17:50 | 52.68424 | 1.33594 | 2860 ft | 140 kts | 53° |
| 2026-05-04 17:50 | 52.69193 | 1.34701 | 3270 ft | 160 kts | 8° |
| 2026-05-04 17:50 | 52.70308 | 1.34290 | 3663 ft | 180 kts | 320° |
| 2026-05-04 17:51 | 52.71186 | 1.32666 | 4096 ft | 200 kts | 307° |
| 2026-05-04 17:51 | 52.72069 | 1.30738 | 4733 ft | 220 kts | 305° |
| 2026-05-04 17:51 | 52.72991 | 1.28612 | 5551 ft | 236 kts | 304° |
| 2026-05-04 17:51 | 52.73958 | 1.26319 | 6444 ft | 249 kts | 303° |
| 2026-05-04 17:52 | 52.74970 | 1.23911 | 7304 ft | 262 kts | 304° |
| 2026-05-04 17:52 | 52.76024 | 1.21466 | 8033 ft | 267 kts | 304° |
| 2026-05-04 17:52 | 52.77152 | 1.18933 | 8852 ft | 272 kts | 305° |
| 2026-05-04 17:52 | 52.78278 | 1.16437 | 9744 ft | 277 kts | 305° |
| 2026-05-04 17:53 | 52.79438 | 1.13862 | 10636 ft | 281 kts | 305° |
| 2026-05-04 17:53 | 52.80614 | 1.11256 | 11532 ft | 285 kts | 305° |
| 2026-05-04 17:53 | 52.81811 | 1.08609 | 12455 ft | 289 kts | 305° |
| 2026-05-04 17:53 | 52.83025 | 1.05928 | 13397 ft | 294 kts | 305° |
| 2026-05-04 17:54 | 52.84262 | 1.03195 | 14256 ft | 298 kts | 305° |
| 2026-05-04 17:54 | 52.85518 | 1.00436 | 15036 ft | 302 kts | 305° |
| 2026-05-04 17:54 | 52.86797 | 0.97644 | 15771 ft | 307 kts | 305° |
| 2026-05-04 17:54 | 52.88084 | 0.94795 | 16488 ft | 311 kts | 304° |
| 2026-05-04 17:55 | 52.89385 | 0.91908 | 17181 ft | 314 kts | 304° |
| 2026-05-04 17:55 | 52.90700 | 0.88991 | 17778 ft | 318 kts | 304° |
| 2026-05-04 17:55 | 52.92042 | 0.86022 | 17961 ft | 329 kts | 304° |
| 2026-05-04 17:55 | 52.93381 | 0.83060 | 18022 ft | 316 kts | 304° |
| 2026-05-04 17:56 | 52.94706 | 0.80141 | 18042 ft | 316 kts | 304° |
| 2026-05-04 17:56 | 52.96027 | 0.77221 | 18043 ft | 317 kts | 304° |
| 2026-05-04 17:56 | 52.97337 | 0.74277 | 18045 ft | 317 kts | 303° |
| 2026-05-04 17:56 | 52.98653 | 0.71334 | 18046 ft | 317 kts | 304° |
| 2026-05-04 17:57 | 52.99971 | 0.68404 | 18049 ft | 317 kts | 304° |
| 2026-05-04 17:57 | 53.01282 | 0.65450 | 18052 ft | 317 kts | 304° |
| 2026-05-04 17:57 | 53.02146 | 0.63496 | 18050 ft | 317 kts | 304° |
| 2026-05-04 17:57 | 53.03463 | 0.60536 | 18417 ft | 319 kts | 304° |
| 2026-05-04 17:58 | 53.04790 | 0.57560 | 18959 ft | 322 kts | 304° |
| 2026-05-04 17:58 | 53.06129 | 0.54557 | 19462 ft | 324 kts | 304° |
| 2026-05-04 17:58 | 53.07480 | 0.51530 | 19966 ft | 327 kts | 304° |
| 2026-05-04 17:58 | 53.08841 | 0.48473 | 20420 ft | 330 kts | 304° |
| 2026-05-04 17:59 | 53.10207 | 0.45385 | 20916 ft | 333 kts | 304° |
| 2026-05-04 17:59 | 53.11584 | 0.42268 | 21406 ft | 335 kts | 304° |
| 2026-05-04 17:59 | 53.14344 | 0.36004 | 22353 ft | 340 kts | 304° |
| 2026-05-04 18:00 | 53.15747 | 0.32811 | 22846 ft | 342 kts | 304° |
| 2026-05-04 18:00 | 53.17155 | 0.29605 | 23320 ft | 344 kts | 304° |
| 2026-05-04 18:00 | 53.18578 | 0.26372 | 23757 ft | 347 kts | 304° |
| 2026-05-04 18:00 | 53.20014 | 0.23101 | 24134 ft | 350 kts | 304° |
| 2026-05-04 18:01 | 53.21451 | 0.19814 | 24495 ft | 352 kts | 304° |
| 2026-05-04 18:01 | 53.22911 | 0.16512 | 24872 ft | 354 kts | 305° |
| 2026-05-04 18:01 | 53.24378 | 0.13193 | 25304 ft | 354 kts | 305° |
| 2026-05-04 18:02 | 53.27306 | 0.06481 | 25976 ft | 361 kts | 306° |
| 2026-05-04 18:02 | 53.28745 | 0.03033 | 26338 ft | 363 kts | 302° |
| 2026-05-04 18:02 | 53.29982 | -0.00644 | 26780 ft | 362 kts | 298° |
| 2026-05-04 18:02 | 53.31090 | -0.04370 | 27179 ft | 363 kts | 297° |
| 2026-05-04 18:03 | 53.32172 | -0.08189 | 27588 ft | 363 kts | 296° |
| 2026-05-04 18:03 | 53.33257 | -0.12010 | 27893 ft | 365 kts | 297° |
| 2026-05-04 18:03 | 53.34359 | -0.15891 | 28011 ft | 369 kts | 297° |
| 2026-05-04 18:03 | 53.35446 | -0.19697 | 28033 ft | 359 kts | 297° |
| 2026-05-04 18:04 | 53.37628 | -0.27224 | 28040 ft | 359 kts | 297° |
| 2026-05-04 18:05 | 53.40921 | -0.38550 | 28047 ft | 360 kts | 297° |
| 2026-05-04 18:05 | 53.43119 | -0.46119 | 28049 ft | 362 kts | 297° |
| 2026-05-04 18:06 | 53.46388 | -0.57494 | 28059 ft | 361 kts | 297° |
| 2026-05-04 18:06 | 53.47488 | -0.61355 | 28068 ft | 372 kts | 297° |
| 2026-05-04 18:06 | 53.48609 | -0.65348 | 28091 ft | 383 kts | 297° |
| 2026-05-04 18:07 | 53.49754 | -0.69391 | 28470 ft | 378 kts | 297° |
| 2026-05-04 18:07 | 53.50873 | -0.73313 | 29303 ft | 366 kts | 297° |
| 2026-05-04 18:07 | 53.51984 | -0.77227 | 29442 ft | 373 kts | 297° |
| 2026-05-04 18:07 | 53.53075 | -0.81084 | 30047 ft | 366 kts | 297° |
| 2026-05-04 18:08 | 53.54156 | -0.84939 | 30464 ft | 364 kts | 297° |
| 2026-05-04 18:08 | 53.55231 | -0.88787 | 30800 ft | 363 kts | 297° |
| 2026-05-04 18:08 | 53.56038 | -0.92805 | 31080 ft | 366 kts | 277° |
| 2026-05-04 18:08 | 53.56017 | -0.97079 | 31381 ft | 366 kts | 266° |
| 2026-05-04 18:09 | 53.55509 | -1.05586 | 31916 ft | 364 kts | 265° |
| 2026-05-04 18:09 | 53.55066 | -1.14193 | 32039 ft | 377 kts | 267° |
| 2026-05-04 18:10 | 53.54756 | -1.23168 | 32059 ft | 393 kts | 268° |
| 2026-05-04 18:10 | 53.54496 | -1.32541 | 32058 ft | 408 kts | 268° |
| 2026-05-04 18:11 | 53.54222 | -1.42216 | 32056 ft | 419 kts | 268° |
| 2026-05-04 18:11 | 53.53930 | -1.52004 | 32042 ft | 419 kts | 268° |
| 2026-05-04 18:12 | 53.53636 | -1.61727 | 32044 ft | 421 kts | 268° |
| 2026-05-04 18:12 | 53.53284 | -1.71686 | 32045 ft | 431 kts | 268° |
| 2026-05-04 18:13 | 53.52949 | -1.81766 | 32046 ft | 432 kts | 268° |
| 2026-05-04 18:14 | 53.53004 | -1.96859 | 32041 ft | 430 kts | 276° |
| 2026-05-04 18:14 | 53.53596 | -2.06867 | 32038 ft | 431 kts | 277° |
| 2026-05-04 18:15 | 53.54794 | -2.26907 | 32042 ft | 432 kts | 277° |
| 2026-05-04 18:16 | 53.55351 | -2.36987 | 32054 ft | 432 kts | 277° |
| 2026-05-04 18:16 | 53.55876 | -2.47073 | 32053 ft | 433 kts | 276° |
| 2026-05-04 18:17 | 53.56658 | -2.62199 | 32044 ft | 433 kts | 277° |
| 2026-05-04 18:18 | 53.57438 | -2.77266 | 32059 ft | 433 kts | 277° |
| 2026-05-04 18:18 | 53.57940 | -2.87371 | 32057 ft | 433 kts | 276° |
| 2026-05-04 18:19 | 53.58683 | -3.02535 | 32061 ft | 433 kts | 276° |
| 2026-05-04 18:19 | 53.59144 | -3.12648 | 32051 ft | 433 kts | 277° |
| 2026-05-04 18:20 | 53.59800 | -3.22711 | 32058 ft | 433 kts | 276° |
| 2026-05-04 18:20 | 53.60161 | -3.32840 | 32065 ft | 434 kts | 275° |
| 2026-05-04 18:21 | 53.60522 | -3.42964 | 32065 ft | 434 kts | 276° |
| 2026-05-04 18:21 | 53.60973 | -3.53091 | 32065 ft | 433 kts | 276° |
| 2026-05-04 18:22 | 53.61430 | -3.63078 | 32063 ft | 433 kts | 276° |
| 2026-05-04 18:22 | 53.61856 | -3.73217 | 32062 ft | 433 kts | 276° |
| 2026-05-04 18:23 | 53.62268 | -3.83291 | 32068 ft | 433 kts | 276° |
| 2026-05-04 18:23 | 53.62672 | -3.93349 | 31464 ft | 423 kts | 276° |
| 2026-05-04 18:24 | 53.62865 | -3.98286 | 30814 ft | 420 kts | 276° |
| 2026-05-04 18:24 | 53.63069 | -4.03179 | 30164 ft | 417 kts | 276° |
| 2026-05-04 18:24 | 53.63268 | -4.08070 | 29430 ft | 419 kts | 275° |
| 2026-05-04 18:24 | 53.63451 | -4.12976 | 28708 ft | 419 kts | 275° |
| 2026-05-04 18:25 | 53.63630 | -4.17873 | 27971 ft | 420 kts | 275° |
| 2026-05-04 18:25 | 53.63808 | -4.22786 | 27266 ft | 417 kts | 275° |
| 2026-05-04 18:25 | 53.63986 | -4.27631 | 26575 ft | 411 kts | 275° |
| 2026-05-04 18:25 | 53.64171 | -4.32415 | 25895 ft | 412 kts | 275° |
| 2026-05-04 18:26 | 53.64365 | -4.37290 | 25241 ft | 419 kts | 275° |
| 2026-05-04 18:26 | 53.64553 | -4.42180 | 24602 ft | 417 kts | 274° |
| 2026-05-04 18:26 | 53.64722 | -4.47009 | 23980 ft | 418 kts | 274° |
| 2026-05-04 18:26 | 53.64896 | -4.51906 | 23303 ft | 419 kts | 274° |
| 2026-05-04 18:27 | 53.65067 | -4.56778 | 22571 ft | 412 kts | 274° |
| 2026-05-04 18:27 | 53.65237 | -4.61571 | 21848 ft | 408 kts | 274° |
| 2026-05-04 18:27 | 53.65399 | -4.66305 | 21140 ft | 402 kts | 274° |
| 2026-05-04 18:27 | 53.65549 | -4.70979 | 20462 ft | 396 kts | 274° |
| 2026-05-04 18:28 | 53.65706 | -4.75581 | 19794 ft | 391 kts | 274° |
| 2026-05-04 18:28 | 53.65856 | -4.80133 | 19151 ft | 386 kts | 274° |
| 2026-05-04 18:28 | 53.66004 | -4.84623 | 18556 ft | 382 kts | 275° |
| 2026-05-04 18:28 | 53.66142 | -4.89067 | 17906 ft | 377 kts | 274° |
| 2026-05-04 18:29 | 53.66280 | -4.93452 | 17234 ft | 372 kts | 274° |
| 2026-05-04 18:29 | 53.66422 | -4.97783 | 16582 ft | 367 kts | 274° |
| 2026-05-04 18:29 | 53.66562 | -5.02017 | 15946 ft | 363 kts | 274° |
| 2026-05-04 18:29 | 53.66703 | -5.06240 | 15320 ft | 359 kts | 273° |
| 2026-05-04 18:30 | 53.66960 | -5.14573 | 14107 ft | 349 kts | 273° |
| 2026-05-04 18:30 | 53.67086 | -5.18660 | 13534 ft | 348 kts | 273° |
| 2026-05-04 18:30 | 53.67208 | -5.22685 | 12907 ft | 343 kts | 273° |
| 2026-05-04 18:31 | 53.67319 | -5.26699 | 12310 ft | 341 kts | 272° |
| 2026-05-04 18:31 | 53.67422 | -5.30680 | 11721 ft | 337 kts | 272° |
| 2026-05-04 18:31 | 53.67516 | -5.34631 | 11143 ft | 336 kts | 273° |
| 2026-05-04 18:31 | 53.67622 | -5.38542 | 10576 ft | 333 kts | 273° |
| 2026-05-04 18:32 | 53.67745 | -5.42423 | 10251 ft | 329 kts | 274° |
| 2026-05-04 18:32 | 53.67863 | -5.46276 | 10125 ft | 328 kts | 273° |
| 2026-05-04 18:32 | 53.67962 | -5.50119 | 10098 ft | 328 kts | 273° |
| 2026-05-04 18:32 | 53.68063 | -5.53946 | 10083 ft | 319 kts | 273° |
| 2026-05-04 18:33 | 53.68167 | -5.57556 | 10078 ft | 301 kts | 273° |
| 2026-05-04 18:33 | 53.68256 | -5.61100 | 10072 ft | 303 kts | 273° |
| 2026-05-04 18:33 | 53.68311 | -5.64606 | 10071 ft | 302 kts | 268° |
| 2026-05-04 18:33 | 53.67731 | -5.67866 | 9832 ft | 279 kts | 238° |
| 2026-05-04 18:34 | 53.66473 | -5.70366 | 9369 ft | 280 kts | 229° |
| 2026-05-04 18:34 | 53.65151 | -5.72723 | 8837 ft | 277 kts | 224° |
| 2026-05-04 18:34 | 53.63575 | -5.74154 | 8344 ft | 253 kts | 190° |
| 2026-05-04 18:34 | 53.61836 | -5.73780 | 8163 ft | 257 kts | 156° |
| 2026-05-04 18:35 | 53.60321 | -5.72220 | 8112 ft | 254 kts | 146° |
| 2026-05-04 18:35 | 53.58917 | -5.70427 | 8088 ft | 253 kts | 142° |
| 2026-05-04 18:35 | 53.57570 | -5.68512 | 8088 ft | 254 kts | 139° |
| 2026-05-04 18:35 | 53.56256 | -5.66522 | 8087 ft | 254 kts | 138° |
| 2026-05-04 18:36 | 53.54958 | -5.64511 | 8081 ft | 253 kts | 138° |
| 2026-05-04 18:36 | 53.53667 | -5.62487 | 8080 ft | 253 kts | 137° |
| 2026-05-04 18:36 | 53.52382 | -5.60461 | 8082 ft | 253 kts | 137° |
| 2026-05-04 18:36 | 53.51091 | -5.58436 | 8088 ft | 254 kts | 138° |
| 2026-05-04 18:37 | 53.49787 | -5.56448 | 8087 ft | 253 kts | 141° |
| 2026-05-04 18:37 | 53.48228 | -5.55185 | 8094 ft | 250 kts | 167° |
| 2026-05-04 18:37 | 53.46527 | -5.54548 | 8097 ft | 251 kts | 170° |
| 2026-05-04 18:37 | 53.44835 | -5.54000 | 8089 ft | 250 kts | 171° |
| 2026-05-04 18:38 | 53.43117 | -5.53520 | 8083 ft | 250 kts | 173° |
| 2026-05-04 18:38 | 53.41396 | -5.53092 | 8079 ft | 250 kts | 173° |
| 2026-05-04 18:38 | 53.39672 | -5.52957 | 8080 ft | 248 kts | 188° |
| 2026-05-04 18:38 | 53.37968 | -5.53377 | 8081 ft | 248 kts | 192° |
| 2026-05-04 18:39 | 53.36277 | -5.53920 | 8077 ft | 247 kts | 193° |
| 2026-05-04 18:39 | 53.34593 | -5.54519 | 8076 ft | 247 kts | 194° |
| 2026-05-04 18:39 | 53.32919 | -5.55160 | 8082 ft | 247 kts | 195° |
| 2026-05-04 18:39 | 53.31252 | -5.55836 | 8075 ft | 246 kts | 199° |
| 2026-05-04 18:40 | 53.29713 | -5.57041 | 8079 ft | 244 kts | 212° |
| 2026-05-04 18:40 | 53.28254 | -5.58502 | 8081 ft | 244 kts | 214° |
| 2026-05-04 18:40 | 53.26828 | -5.60047 | 8081 ft | 244 kts | 216° |
| 2026-05-04 18:40 | 53.25465 | -5.61714 | 8073 ft | 242 kts | 227° |
| 2026-05-04 18:41 | 53.24710 | -5.64168 | 7810 ft | 243 kts | 263° |
| 2026-05-04 18:41 | 53.24976 | -5.66923 | 7328 ft | 246 kts | 297° |
| 2026-05-04 18:41 | 53.25911 | -5.69281 | 6814 ft | 232 kts | 306° |
| 2026-05-04 18:41 | 53.26887 | -5.71323 | 6180 ft | 229 kts | 309° |
| 2026-05-04 18:42 | 53.27925 | -5.73295 | 5536 ft | 231 kts | 311° |
| 2026-05-04 18:42 | 53.29039 | -5.75281 | 4920 ft | 242 kts | 313° |
| 2026-05-04 18:42 | 53.30177 | -5.77261 | 4285 ft | 222 kts | 314° |
| 2026-05-04 18:42 | 53.31240 | -5.79069 | 3635 ft | 214 kts | 316° |
| 2026-05-04 18:43 | 53.32270 | -5.80810 | 3197 ft | 206 kts | 316° |
| 2026-05-04 18:43 | 53.33274 | -5.82504 | 3054 ft | 205 kts | 316° |
| 2026-05-04 18:43 | 53.34279 | -5.84195 | 3023 ft | 205 kts | 317° |
| 2026-05-04 18:43 | 53.35282 | -5.85890 | 3011 ft | 205 kts | 316° |
| 2026-05-04 18:44 | 53.36273 | -5.87597 | 3009 ft | 204 kts | 316° |
| 2026-05-04 18:44 | 53.36607 | -5.88175 | 3009 ft | 204 kts | 316° |
| 2026-05-04 18:44 | 53.38247 | -5.91029 | 3010 ft | 205 kts | 316° |
| 2026-05-04 18:44 | 53.39233 | -5.92751 | 3010 ft | 205 kts | 316° |
| 2026-05-04 18:45 | 53.40121 | -5.94602 | 2997 ft | 207 kts | 296° |
| 2026-05-04 18:45 | 53.40353 | -5.96933 | 3005 ft | 200 kts | 280° |
| 2026-05-04 18:45 | 53.40600 | -5.99226 | 3000 ft | 197 kts | 284° |
| 2026-05-04 18:45 | 53.40783 | -6.01407 | 3022 ft | 192 kts | 280° |
| 2026-05-04 18:46 | 53.40910 | -6.03610 | 3078 ft | 189 kts | 279° |
| 2026-05-04 18:46 | 53.41012 | -6.05759 | 3061 ft | 175 kts | 278° |
| 2026-05-04 18:46 | 53.41097 | -6.07687 | 2928 ft | 162 kts | 278° |
| 2026-05-04 18:46 | 53.41175 | -6.09642 | 2327 ft | 160 kts | 278° |
| 2026-05-04 18:47 | 53.41231 | -6.10839 | 2167 ft | 147 kts | 279° |
| 2026-05-04 18:47 | 53.41335 | -6.12489 | 1825 ft | 142 kts | 281° |
| 2026-05-04 18:47 | 53.41437 | -6.14070 | 1562 ft | 130 kts | 280° |
| 2026-05-04 18:47 | 53.41518 | -6.15498 | 1368 ft | 117 kts | 280° |
| 2026-05-04 18:48 | 53.41593 | -6.16823 | 1208 ft | 113 kts | 279° |
| 2026-05-04 18:48 | 53.41665 | -6.18152 | 1054 ft | 115 kts | 279° |
| 2026-05-04 18:48 | 53.41746 | -6.19489 | 893 ft | 116 kts | 277° |
| 2026-05-04 18:48 | 53.41822 | -6.20875 | 770 ft | 122 kts | 273° |
| 2026-05-04 18:49 | 53.41894 | -6.22321 | 589 ft | 124 kts | 274° |
| 2026-05-04 18:49 | 53.41951 | -6.23741 | 432 ft | 118 kts | 274° |
| 2026-05-04 18:49 | 53.42026 | -6.25089 | 254 ft | 112 kts | 273° |
| 2026-05-04 18:49 | 53.42090 | -6.26257 | 214 ft | 81 kts | 276° |
| 2026-05-04 18:50 | 53.42129 | -6.26956 | 211 ft | 34 kts | 275° |
| 2026-05-04 18:50 | 53.42143 | -6.27061 | 215 ft | 5 kts | 356° |
| 2026-05-04 18:50 | 53.42230 | -6.27052 | 210 ft | 16 kts | 3° |
| 2026-05-04 18:50 | 53.42306 | -6.26976 | 214 ft | 14 kts | 98° |
| 2026-05-04 18:51 | 53.42290 | -6.26806 | 211 ft | 16 kts | 94° |
| 2026-05-04 18:51 | 53.42280 | -6.26573 | 211 ft | 24 kts | 94° |
| 2026-05-04 18:51 | 53.42267 | -6.26248 | 211 ft | 30 kts | 94° |
| 2026-05-04 18:51 | 53.42292 | -6.25924 | 212 ft | 28 kts | 49° |
| 2026-05-04 18:52 | 53.42418 | -6.25702 | 211 ft | 25 kts | 47° |
| 2026-05-04 18:52 | 53.42532 | -6.25512 | 210 ft | 21 kts | 45° |
| 2026-05-04 18:52 | 53.42631 | -6.25346 | 210 ft | 18 kts | 49° |
| 2026-05-04 18:52 | 53.42718 | -6.25188 | 211 ft | 17 kts | 61° |
| 2026-05-04 18:53 | 53.42653 | -6.25066 | 214 ft | 14 kts | 159° |
| 2026-05-04 18:53 | 53.42564 | -6.25011 | 215 ft | 13 kts | 160° |
| 2026-05-04 18:53 | 53.42559 | -6.24904 | 213 ft | 8 kts | 62° |
| 2026-05-04 18:53 | 53.42567 | -6.24883 | 215 ft | 4 kts | 45° |
| 2026-05-04 18:54 | 53.42618 | -6.24881 | 211 ft | 11 kts | 347° |
| 2026-05-04 18:54 | 53.42690 | -6.24816 | 211 ft | 16 kts | 58° |
| 2026-05-04 18:54 | 53.42733 | -6.24668 | 216 ft | 8 kts | 72° |
| 2026-05-04 18:54 | 53.42713 | -6.24608 | 212 ft | 5 kts | 140° |
| 2026-05-04 18:55 | 53.42690 | -6.24576 | 211 ft | 3 kts | 140° |
| 2026-05-04 18:55 | 53.42685 | -6.24570 | 211 ft | 0 kts | 140° |